Huvudsida
METAR-TAF:

METAR-TAF

Flygplatser :

Sundsvall-Härnösand, Sverige

Sundsvall Timrå Airport

latitud: 62-32N, longitud: 017-27E, höjd: 4 m

Aktuellt väderrapport

Denna rapport gjordes för 26 minuter sedan, klockan 02:50 UTC
Vind 8 kt från väst/nordväst
Temperatur -10°C
Fuktighet 79%
Tryck 1001 hPa
Sikt 10 km eller mer

METAR: ESNN 190250Z AUTO 30008KT 9999 BKN034/// OVC045/// M10/M13 Q1001 RESG

Tid: 04:16 (03:16 UTC)

Väderprognos

Denna rapport gjordes för 3 timmar och 46 minuter sedan, klockan 23:30 UTC
Prognos gäller från 19 kl. 00 UTC till 19 kl. 02 UTC
Vind 9 kt från nordväst
Sikt 10 km eller mer
Brutna moln på en höjd av 3000 ft
Sannolikhet 40%
från 19 kl. 00 UTC till 19 kl. 02 UTC
Sikt: 3000 m
på en höjd av 1200 ft
lätt snö

TAF: ESNN 182330Z 1900/1902 32009KT 9999 BKN030 PROB40 1900/1902 3000 -SN VV012

Aktuella väderrapporter och prognoser från 4000 flygplatser (METAR- och TAF-rapporter).

De tillgängliga stationerna syns som gula och röda prickar på kartan.

För musen över prickarna för att se namnen på stationerna.

Klicka sedan för att få väderrapporter och prognoser.

För att ändra kartan: Klicka på de gröna knapparna med ett svart kors på för att zooma in; den gröna knappen med ett streck på för att zooma ut; eller på de gröna pilarna för angränsande kartor.


METAR-TAF: